Time;durP1;ratioP1;P1;durP2;ratioP2;P2;SDS_P1;SDS_P2;PMS_P1;PMS_P2;Temp;Humidity;BMP_temperature;BMP_pressure;BME280_temperature;BME280_humidity;BME280_pressure;Samples;Min_cycle;Max_cycle;Signal;HPM_P1;HPM_P2
2023/10/26 00:01:23;;;;;;;2.40;1.33;;;;;;;-0.23;47.69;100022.31;5115385;28;20426;-62
2023/10/26 00:03:48;;;;;;;3.28;1.73;;;;;;;-0.30;47.25;100016.38;5115085;28;20032;-59
2023/10/26 00:06:14;;;;;;;3.67;1.40;;;;;;;-0.31;47.70;100017.31;5114559;28;20038;-58
2023/10/26 00:08:40;;;;;;;3.03;1.48;;;;;;;-0.30;46.88;100025.16;5114993;28;20031;-57
2023/10/26 00:11:05;;;;;;;6.53;1.60;;;;;;;-0.31;47.30;100009.41;5115126;28;20032;-57
2023/10/26 00:13:31;;;;;;;1.58;1.17;;;;;;;-0.23;46.72;100012.66;5114467;28;20019;-61
2023/10/26 00:15:57;;;;;;;2.92;1.17;;;;;;;-0.32;47.26;100023.47;5113910;28;20027;-61
2023/10/26 00:18:22;;;;;;;3.83;1.50;;;;;;;-0.35;46.60;99999.91;5113829;28;20038;-59
2023/10/26 00:20:49;;;;;;;2.38;1.30;;;;;;;-0.30;46.73;100019.03;5114844;27;20035;-60
2023/10/26 00:23:15;;;;;;;2.63;1.23;;;;;;;-0.53;46.85;99970.66;5113324;28;20114;-61
2023/10/26 00:25:40;;;;;;;3.78;1.45;;;;;;;-0.34;47.04;100007.75;5113311;28;20110;-59
2023/10/26 00:28:08;;;;;;;2.58;1.13;;;;;;;-0.13;46.39;100014.97;5114733;28;20426;-61
2023/10/26 00:30:33;;;;;;;3.05;1.70;;;;;;;-0.20;46.10;100007.31;5114502;28;20042;-60
2023/10/26 00:32:59;;;;;;;1.85;1.40;;;;;;;-0.34;46.48;100017.41;5114110;28;20032;-60
2023/10/26 00:35:24;;;;;;;7.45;2.03;;;;;;;-0.41;46.66;100014.09;5114259;28;20028;-60
2023/10/26 00:37:50;;;;;;;3.03;1.42;;;;;;;-0.40;46.61;99989.50;5113565;28;20058;-62
2023/10/26 00:40:16;;;;;;;2.50;1.60;;;;;;;-0.41;46.38;99994.84;5114555;28;20035;-60
2023/10/26 00:42:41;;;;;;;2.13;1.60;;;;;;;-0.24;45.69;100002.19;5114075;28;20065;-59
2023/10/26 00:45:07;;;;;;;2.15;1.02;;;;;;;-0.33;46.03;100006.84;5114463;28;20027;-59
2023/10/26 00:47:33;;;;;;;3.22;1.73;;;;;;;-0.41;46.80;100002.75;5114080;28;20659;-59
2023/10/26 00:49:59;;;;;;;3.15;1.67;;;;;;;-0.40;46.40;99999.19;5113743;28;20073;-60
2023/10/26 00:52:25;;;;;;;2.58;1.80;;;;;;;-0.34;45.85;100002.50;5114507;28;20099;-58
2023/10/26 00:54:52;;;;;;;3.05;1.70;;;;;;;-0.41;45.83;99965.91;5112868;28;20062;-58
2023/10/26 00:57:21;;;;;;;4.32;2.00;;;;;;;-0.34;45.92;99983.19;5114033;28;20032;-59
2023/10/26 00:59:48;;;;;;;2.92;1.67;;;;;;;-0.22;45.73;99997.72;5114149;28;20038;-58
2023/10/26 01:02:15;;;;;;;2.38;1.50;;;;;;;-0.46;45.95;99961.66;5113855;28;20416;-58
2023/10/26 01:04:41;;;;;;;6.82;1.85;;;;;;;-0.27;46.15;99989.97;5112696;28;20118;-59
2023/10/26 01:07:06;;;;;;;3.63;2.00;;;;;;;-0.21;46.00;100005.59;5113875;28;20106;-56
2023/10/26 01:09:32;;;;;;;2.88;1.60;;;;;;;-0.42;46.14;99977.34;5113760;28;20392;-59
2023/10/26 01:11:58;;;;;;;3.63;1.70;;;;;;;-0.31;46.27;99983.09;5114048;28;20029;-57
2023/10/26 01:14:24;;;;;;;4.25;2.35;;;;;;;-0.37;46.32;99999.09;5113547;28;20104;-58
2023/10/26 01:16:49;;;;;;;3.88;2.22;;;;;;;-0.28;46.36;100011.09;5113477;28;20039;-58
2023/10/26 01:19:15;;;;;;;2.97;1.70;;;;;;;-0.32;46.23;99976.13;5113384;28;20032;-59
2023/10/26 01:21:51;;;;;;;3.55;2.38;;;;;;;-0.31;46.37;100001.50;5113631;28;20084;-60
2023/10/26 01:24:17;;;;;;;3.92;1.83;;;;;;;-0.35;46.32;99989.38;5113388;28;20078;-58
2023/10/26 01:26:43;;;;;;;2.88;2.15;;;;;;;-0.30;46.55;99990.97;5113621;28;20035;-59
2023/10/26 01:29:09;;;;;;;4.38;2.75;;;;;;;-0.50;46.02;99938.13;5113231;28;20042;-58
2023/10/26 01:31:34;;;;;;;8.05;2.10;;;;;;;-0.27;46.42;99961.03;5113138;28;20035;-60
2023/10/26 01:34:00;;;;;;;2.20;1.00;;;;;;;0.09;45.71;99971.22;5113694;28;20430;-60
2023/10/26 01:36:26;;;;;;;3.60;1.98;;;;;;;-0.07;44.95;99976.16;5113066;28;20423;-61
2023/10/26 01:38:54;;;;;;;2.97;2.22;;;;;;;-0.12;45.17;99977.22;5113340;28;20425;-62
2023/10/26 01:41:20;;;;;;;2.65;1.90;;;;;;;-0.49;45.75;99938.06;5113434;28;20517;-60
2023/10/26 01:43:45;;;;;;;2.40;1.85;;;;;;;-0.34;45.81;99975.31;5113105;28;20037;-58
2023/10/26 01:46:11;;;;;;;3.58;1.80;;;;;;;-0.55;46.28;99956.69;5113184;28;20037;-59
2023/10/26 01:48:37;;;;;;;3.90;1.88;;;;;;;-0.31;45.88;99991.88;5113306;28;20446;-56
2023/10/26 01:51:02;;;;;;;5.28;1.95;;;;;;;-0.24;46.00;99991.66;5113415;28;20028;-58
2023/10/26 01:53:28;;;;;;;2.85;1.85;;;;;;;-0.31;45.67;99956.78;5113155;28;20035;-61
2023/10/26 01:55:53;;;;;;;2.47;1.95;;;;;;;-0.35;46.20;99977.09;5112103;28;20032;-60
2023/10/26 01:58:19;;;;;;;3.92;1.45;;;;;;;-0.20;45.90;99981.00;5113211;28;20465;-59
2023/10/26 02:00:44;;;;;;;1.90;1.40;;;;;;;-0.18;45.62;99966.00;5113105;28;20077;-61
2023/10/26 02:03:10;;;;;;;2.47;1.80;;;;;;;-0.45;46.58;99979.16;5113116;28;20058;-60
2023/10/26 02:05:35;;;;;;;3.13;2.10;;;;;;;-0.51;47.17;99967.97;5113227;28;20055;-60
2023/10/26 02:08:01;;;;;;;3.00;2.30;;;;;;;-0.51;46.61;99955.66;5113380;28;20043;-57
2023/10/26 02:10:30;;;;;;;3.25;2.10;;;;;;;-0.53;46.70;99956.66;5112659;28;20024;-60
2023/10/26 02:12:56;;;;;;;2.47;1.33;;;;;;;-0.27;45.96;99989.97;5095450;28;20062;-59
2023/10/26 02:15:23;;;;;;;2.00;1.33;;;;;;;-0.21;45.62;99992.44;5114762;28;20511;-58
2023/10/26 02:17:48;;;;;;;3.65;1.90;;;;;;;-0.44;46.17;99951.94;5116006;28;20435;-58
2023/10/26 02:20:14;;;;;;;3.70;1.77;;;;;;;-0.39;45.78;99971.97;5098797;28;20027;-58
2023/10/26 02:22:40;;;;;;;2.03;1.17;;;;;;;-0.29;45.73;99976.00;5116099;28;20046;-60
2023/10/26 02:25:06;;;;;;;2.08;1.20;;;;;;;-0.31;45.87;99973.44;5116985;28;20366;-62
2023/10/26 02:27:32;;;;;;;4.20;1.25;;;;;;;-0.36;45.83;99969.25;5116937;28;20046;-59
2023/10/26 02:29:58;;;;;;;4.18;1.90;;;;;;;-0.41;46.27;99974.66;5115638;28;20035;-59
2023/10/26 02:32:24;;;;;;;4.07;1.60;;;;;;;-0.49;46.37;99966.16;5116626;27;20370;-59
2023/10/26 02:34:50;;;;;;;2.00;1.38;;;;;;;-0.48;46.16;99974.00;5116834;28;20088;-60
2023/10/26 02:37:19;;;;;;;2.50;1.30;;;;;;;-0.85;46.70;99943.63;5115765;28;20027;-62
2023/10/26 02:39:45;;;;;;;2.97;1.65;;;;;;;-0.71;47.04;99966.84;5116509;28;20354;-59
2023/10/26 02:42:10;;;;;;;3.38;1.52;;;;;;;-0.94;46.70;99931.63;5115719;28;20028;-58
2023/10/26 02:44:36;;;;;;;3.00;1.52;;;;;;;-0.58;47.00;99964.69;5116703;28;20039;-62
2023/10/26 02:47:02;;;;;;;2.83;1.40;;;;;;;-0.97;47.35;99907.19;5116783;28;20035;-61
2023/10/26 02:49:27;;;;;;;3.08;1.35;;;;;;;-0.64;47.05;99985.94;5116133;28;20024;-60
2023/10/26 02:51:53;;;;;;;2.35;1.30;;;;;;;-0.52;46.76;99959.22;5116393;28;20031;-60
2023/10/26 02:54:19;;;;;;;3.72;1.75;;;;;;;-0.60;46.70;99964.75;5116718;28;20063;-61
2023/10/26 02:56:44;;;;;;;3.47;1.38;;;;;;;-0.64;46.67;99943.84;5115487;28;20031;-62
2023/10/26 02:59:10;;;;;;;3.15;1.73;;;;;;;-0.67;47.29;99955.31;5116139;28;20024;-58
2023/10/26 03:01:36;;;;;;;4.55;1.50;;;;;;;-0.65;46.91;99978.94;5116384;28;20151;-60
2023/10/26 03:04:02;;;;;;;3.75;1.75;;;;;;;-0.71;46.47;99921.31;5116493;28;20028;-58
2023/10/26 03:06:28;;;;;;;3.08;1.13;;;;;;;-0.47;46.56;99988.88;5115075;28;20032;-61
2023/10/26 03:08:53;;;;;;;4.50;1.20;;;;;;;-0.95;47.50;99918.56;5116120;28;20087;-56
2023/10/26 03:11:19;;;;;;;2.15;1.30;;;;;;;-0.92;47.00;99913.19;5115764;28;20076;-61
2023/10/26 03:13:44;;;;;;;3.30;1.65;;;;;;;-0.74;47.05;99956.44;5114875;28;20031;-60
2023/10/26 03:16:10;;;;;;;2.90;1.50;;;;;;;-0.73;47.47;99960.78;5115916;28;20438;-58
2023/10/26 03:18:36;;;;;;;3.72;1.52;;;;;;;-0.99;47.52;99912.53;5115924;28;20435;-61
2023/10/26 03:21:02;;;;;;;3.40;1.45;;;;;;;-0.78;47.03;99955.66;5115650;27;20031;-60
2023/10/26 03:23:28;;;;;;;3.10;1.67;;;;;;;-0.95;47.38;99918.56;5114678;28;20032;-59
2023/10/26 03:25:54;;;;;;;2.53;1.67;;;;;;;-0.98;47.08;99914.22;5115146;28;20099;-58
2023/10/26 03:28:19;;;;;;;6.13;1.75;;;;;;;-1.13;47.83;99897.19;5114996;28;20054;-59
2023/10/26 03:30:46;;;;;;;4.15;1.45;;;;;;;-0.90;47.47;99938.50;5114478;28;20112;-59
2023/10/26 03:33:11;;;;;;;2.92;1.55;;;;;;;-0.92;47.61;99939.47;5115411;28;20035;-58
2023/10/26 03:35:37;;;;;;;2.08;1.38;;;;;;;-0.89;47.21;99942.00;5115705;28;20047;-59
2023/10/26 03:38:03;;;;;;;1.92;1.55;;;;;;;-0.82;47.30;99954.03;5114742;28;20361;-60
2023/10/26 03:40:29;;;;;;;1.67;1.33;;;;;;;-0.91;47.56;99951.72;5114958;28;20035;-59
2023/10/26 03:42:54;;;;;;;2.92;1.73;;;;;;;-0.97;47.42;99952.75;5115374;28;20027;-61
2023/10/26 03:45:20;;;;;;;2.65;1.08;;;;;;;-0.86;47.49;99955.03;5114465;28;20024;-62
2023/10/26 03:47:45;;;;;;;3.53;2.30;;;;;;;-0.95;47.11;99934.31;5115186;28;20035;-59
2023/10/26 03:50:11;;;;;;;3.63;1.52;;;;;;;-1.04;46.98;99940.72;5115207;28;20028;-60
2023/10/26 03:52:36;;;;;;;4.22;1.50;;;;;;;-1.15;47.47;99948.94;5115615;28;20070;-58
2023/10/26 03:55:04;;;;;;;3.83;1.70;;;;;;;-1.42;48.03;99940.97;5115089;28;20114;-55
2023/10/26 03:57:32;;;;;;;3.08;1.42;;;;;;;-1.18;48.01;99943.75;5114902;28;20438;-60
2023/10/26 03:59:58;;;;;;;3.70;1.88;;;;;;;-1.23;48.13;99927.25;5115345;28;20081;-58
2023/10/26 04:02:23;;;;;;;4.07;1.95;;;;;;;-0.95;47.08;99939.56;5115085;28;20400;-59
2023/10/26 04:04:50;;;;;;;4.20;2.30;;;;;;;-1.04;47.79;99936.31;5114707;28;20466;-60
2023/10/26 04:07:16;;;;;;;5.60;2.67;;;;;;;-1.15;47.32;99933.16;5114720;28;20027;-61
2023/10/26 04:09:42;;;;;;;3.35;2.10;;;;;;;-1.20;48.21;99925.41;5113968;28;20028;-60
2023/10/26 04:12:07;;;;;;;3.83;2.90;;;;;;;-1.26;48.17;99922.09;5115273;28;20023;-60
2023/10/26 04:14:33;;;;;;;2.40;1.88;;;;;;;-1.02;47.76;99936.28;5114368;28;20118;-59
2023/10/26 04:16:59;;;;;;;3.40;2.50;;;;;;;-1.25;48.20;99910.69;5096568;28;20032;-61
2023/10/26 04:19:24;;;;;;;5.03;2.90;;;;;;;-1.16;48.34;99937.53;5114900;28;20371;-58
2023/10/26 04:21:50;;;;;;;4.78;2.63;;;;;;;-1.18;48.59;99941.13;5114714;28;20064;-59
2023/10/26 04:24:15;;;;;;;3.38;3.00;;;;;;;-1.00;47.98;99937.09;5113416;28;20044;-59
2023/10/26 04:26:42;;;;;;;6.35;3.00;;;;;;;-1.13;48.52;99936.59;5113770;28;20073;-60
2023/10/26 04:29:07;;;;;;;3.85;2.58;;;;;;;-1.03;48.53;99947.69;5114939;28;20500;-59
2023/10/26 04:31:33;;;;;;;3.92;2.60;;;;;;;-1.06;48.32;99926.75;5114593;28;20110;-60
2023/10/26 04:33:59;;;;;;;5.03;3.30;;;;;;;-1.08;48.85;99941.72;5114037;28;20430;-58
2023/10/26 04:36:26;;;;;;;3.95;3.47;;;;;;;-1.08;48.87;99929.44;5114252;28;20038;-61
2023/10/26 04:38:51;;;;;;;4.90;3.10;;;;;;;-1.04;49.04;99930.22;5113555;28;20039;-60
2023/10/26 04:41:17;;;;;;;6.88;3.65;;;;;;;-1.06;47.66;99919.72;5114759;28;20039;-62
2023/10/26 04:43:43;;;;;;;7.18;3.20;;;;;;;-0.78;47.71;99942.50;5113802;28;20023;-57
2023/10/26 04:46:09;;;;;;;5.57;2.13;;;;;;;-0.96;47.26;99888.75;5114436;28;20028;-59
2023/10/26 04:48:34;;;;;;;4.75;2.92;;;;;;;-1.07;48.08;99925.88;5114090;28;20084;-59
2023/10/26 04:51:00;;;;;;;4.10;2.38;;;;;;;-1.07;47.99;99925.88;5114136;28;20031;-61
2023/10/26 04:53:26;;;;;;;4.63;2.28;;;;;;;-1.01;47.40;99945.88;5113942;28;20085;-61
2023/10/26 04:55:51;;;;;;;4.85;2.40;;;;;;;-1.13;47.57;99919.97;5112651;28;20039;-60
2023/10/26 04:58:18;;;;;;;4.40;2.45;;;;;;;-1.16;47.73;99936.69;5114097;28;20067;-58
2023/10/26 05:00:43;;;;;;;5.10;2.20;;;;;;;-1.28;47.85;99943.19;5113946;28;20110;-64
2023/10/26 05:03:09;;;;;;;7.57;2.45;;;;;;;-1.28;48.59;99952.81;5113057;28;20134;-60
2023/10/26 05:05:35;;;;;;;4.50;2.33;;;;;;;-1.13;47.60;99940.97;5113671;28;20028;-58
2023/10/26 05:08:01;;;;;;;4.20;2.42;;;;;;;-1.17;47.46;99927.94;5113733;27;20028;-60
2023/10/26 05:10:27;;;;;;;5.30;2.58;;;;;;;-1.10;47.27;99909.34;5113580;28;20027;-60
2023/10/26 05:12:53;;;;;;;6.35;2.83;;;;;;;-1.30;47.67;99877.53;5112590;28;20029;-60
2023/10/26 05:15:19;;;;;;;6.07;2.60;;;;;;;-1.08;47.83;99912.81;5113383;28;20039;-60
2023/10/26 05:17:44;;;;;;;5.68;2.28;;;;;;;-0.82;47.09;99932.16;5113668;28;20165;-64
2023/10/26 05:20:10;;;;;;;9.82;3.22;;;;;;;-0.85;47.10;99919.09;5112526;28;20043;-58
2023/10/26 05:22:36;;;;;;;7.75;2.85;;;;;;;-0.82;47.20;99945.31;5113294;28;20028;-58
2023/10/26 05:25:05;;;;;;;7.03;2.95;;;;;;;-0.61;46.29;99928.81;5113231;28;20039;-59
2023/10/26 05:27:32;;;;;;;4.60;2.80;;;;;;;-0.68;46.16;99936.97;5113279;28;20100;-56
2023/10/26 05:29:58;;;;;;;4.50;3.03;;;;;;;-0.61;46.47;99912.19;5113045;27;20023;-60
2023/10/26 05:32:24;;;;;;;5.47;3.10;;;;;;;-1.05;46.43;99855.75;5112686;28;20315;-56
2023/10/26 05:34:49;;;;;;;5.07;3.30;;;;;;;-0.75;47.07;99910.00;5112979;28;20039;-59
2023/10/26 05:37:16;;;;;;;7.78;3.00;;;;;;;-0.61;46.59;99913.03;5113289;28;20346;-61
2023/10/26 05:39:41;;;;;;;5.55;2.63;;;;;;;-0.40;45.66;99899.22;5113771;28;20043;-58
2023/10/26 05:42:07;;;;;;;6.93;3.42;;;;;;;-0.31;45.55;99907.66;5112987;28;20050;-61
2023/10/26 05:44:32;;;;;;;6.30;3.20;;;;;;;0.21;45.11;99908.50;5113309;28;20027;-62
2023/10/26 05:46:59;;;;;;;8.75;3.35;;;;;;;1.88;41.84;99897.53;5113051;28;20134;-60
2023/10/26 05:49:25;;;;;;;5.65;2.85;;;;;;;3.30;38.38;99906.88;5112712;28;20038;-63
2023/10/26 05:51:51;;;;;;;5.45;3.08;;;;;;;3.32;38.05;99911.22;5112791;28;20418;-62
2023/10/26 05:54:17;;;;;;;5.43;2.85;;;;;;;2.91;38.06;99886.72;5113038;28;20024;-63
2023/10/26 05:56:43;;;;;;;6.85;3.45;;;;;;;2.35;38.97;99902.50;5113389;28;20081;-61
2023/10/26 05:59:08;;;;;;;4.30;2.35;;;;;;;1.89;40.45;99907.16;5112981;28;20084;-60
2023/10/26 06:01:34;;;;;;;8.00;3.53;;;;;;;1.66;40.97;99898.44;5111748;28;20436;-62
2023/10/26 06:03:59;;;;;;;6.95;3.70;;;;;;;2.39;40.23;99892.66;5112982;28;20046;-62
2023/10/26 06:06:25;;;;;;;9.55;2.97;;;;;;;4.34;36.90;99916.66;5113311;28;20094;-61
2023/10/26 06:08:51;;;;;;;4.90;2.80;;;;;;;4.79;34.66;99886.84;5112753;28;20071;-59
2023/10/26 06:11:17;;;;;;;6.40;3.10;;;;;;;4.11;35.38;99901.97;5113254;28;20495;-61
2023/10/26 06:13:43;;;;;;;6.88;3.42;;;;;;;3.04;37.71;99851.72;5113098;28;20049;-61
2023/10/26 06:16:12;;;;;;;4.72;3.10;;;;;;;2.67;38.89;99886.94;5113332;28;20055;-60
2023/10/26 06:18:39;;;;;;;6.57;3.17;;;;;;;2.31;39.25;99902.72;5112799;28;20450;-60
2023/10/26 06:21:05;;;;;;;6.65;3.50;;;;;;;1.86;40.00;99905.53;5112638;28;20453;-61
2023/10/26 06:23:31;;;;;;;4.53;2.55;;;;;;;1.56;40.08;99883.03;5112827;28;20178;-60
2023/10/26 06:26:01;;;;;;;5.40;2.78;;;;;;;1.54;40.24;99920.94;5111992;28;20490;-59
2023/10/26 06:28:28;;;;;;;6.82;2.75;;;;;;;1.26;40.49;99914.16;5113069;28;20036;-60
2023/10/26 06:30:54;;;;;;;7.95;3.15;;;;;;;1.06;40.71;99899.16;5111437;28;20470;-60
2023/10/26 06:33:19;;;;;;;6.45;2.92;;;;;;;0.44;41.81;99860.25;5113077;28;20063;-61
2023/10/26 06:35:45;;;;;;;3.28;2.08;;;;;;;0.90;41.36;99905.03;5112992;28;20082;-59
2023/10/26 06:38:11;;;;;;;8.95;2.63;;;;;;;0.68;41.49;99908.50;5112902;28;20426;-61
2023/10/26 06:40:36;;;;;;;8.60;2.85;;;;;;;0.98;41.29;99915.28;5112530;28;20084;-61
2023/10/26 06:43:02;;;;;;;4.03;2.30;;;;;;;1.31;40.42;99929.81;5111738;28;20512;-60
2023/10/26 06:45:28;;;;;;;4.72;2.75;;;;;;;1.38;40.41;99915.44;5112982;28;20111;-59
2023/10/26 06:47:53;;;;;;;7.15;2.83;;;;;;;1.39;40.37;99901.34;5112579;28;20032;-59
2023/10/26 06:50:19;;;;;;;4.45;2.95;;;;;;;1.31;40.80;99900.81;5112664;28;20415;-59
2023/10/26 06:52:44;;;;;;;4.97;2.72;;;;;;;1.22;40.94;99905.53;5111582;28;20034;-59
2023/10/26 06:55:16;;;;;;;6.85;2.97;;;;;;;1.09;41.06;99901.66;5112699;28;20100;-60
2023/10/26 06:57:44;;;;;;;7.05;3.55;;;;;;;1.52;40.78;99886.72;5111497;28;20027;-58
2023/10/26 07:00:11;;;;;;;4.43;2.88;;;;;;;1.76;39.66;99904.19;5112126;28;20028;-61
2023/10/26 07:02:37;;;;;;;5.13;2.90;;;;;;;1.88;39.68;99885.19;5114324;28;20547;-61
2023/10/26 07:05:03;;;;;;;3.83;2.50;;;;;;;2.54;38.93;99891.09;5115992;28;20115;-61
2023/10/26 07:07:32;;;;;;;7.43;3.80;;;;;;;2.73;38.69;99891.94;5098389;28;20023;-52
2023/10/26 07:09:57;;;;;;;6.85;3.83;;;;;;;3.95;36.70;99886.84;5114982;28;20106;-53
2023/10/26 07:12:24;;;;;;;4.38;3.33;;;;;;;6.29;33.16;99885.28;5114968;28;20055;-59
2023/10/26 07:14:53;;;;;;;10.07;2.88;;;;;;;8.30;31.31;99859.69;5116203;28;20027;-59
2023/10/26 07:17:21;;;;;;;9.48;3.50;;;;;;;9.54;27.60;99885.47;5116203;28;20027;-62
2023/10/26 07:19:47;;;;;;;7.50;3.15;;;;;;;10.38;26.59;99871.06;5116247;27;20027;-62
2023/10/26 07:22:12;;;;;;;5.70;3.30;;;;;;;11.22;25.26;99864.34;5115565;28;20126;-61
2023/10/26 07:24:38;;;;;;;5.78;3.28;;;;;;;11.01;24.79;99833.00;5115791;28;20048;-62
2023/10/26 07:27:04;;;;;;;7.47;3.55;;;;;;;9.48;26.53;99877.91;5115527;28;20458;-60
2023/10/26 07:29:30;;;;;;;9.90;3.70;;;;;;;8.25;28.14;99877.84;5115773;28;20047;-60
2023/10/26 07:31:56;;;;;;;12.43;3.40;;;;;;;7.32;29.26;99876.94;5115438;28;20030;-61
2023/10/26 07:34:21;;;;;;;5.65;3.60;;;;;;;6.65;30.84;99867.94;5115981;28;20039;-62
2023/10/26 07:36:47;;;;;;;7.18;3.58;;;;;;;6.12;31.47;99868.53;5115538;28;20032;-62
2023/10/26 07:39:14;;;;;;;8.30;3.85;;;;;;;5.71;32.65;99875.38;5115377;28;20040;-60
2023/10/26 07:41:40;;;;;;;8.15;3.40;;;;;;;5.62;32.28;99869.78;5115550;28;20028;-59
2023/10/26 07:44:05;;;;;;;6.95;3.60;;;;;;;5.54;32.83;99872.88;5115559;28;20446;-61
2023/10/26 07:46:31;;;;;;;11.13;3.85;;;;;;;5.23;32.72;99875.50;5115170;28;20023;-60
2023/10/26 07:48:56;;;;;;;7.60;3.65;;;;;;;4.49;34.46;99863.72;5115098;28;20023;-62
2023/10/26 07:51:22;;;;;;;9.88;3.72;;;;;;;4.20;33.99;99851.09;5115881;28;20024;-59
2023/10/26 07:53:48;;;;;;;7.15;3.58;;;;;;;3.88;34.82;99874.88;5114974;28;20165;-61
2023/10/26 07:56:15;;;;;;;7.45;3.90;;;;;;;3.52;35.80;99862.59;5114602;28;20059;-57
2023/10/26 07:58:40;;;;;;;5.20;3.28;;;;;;;3.42;35.74;99928.38;5114787;28;20035;-59
2023/10/26 08:01:09;;;;;;;7.55;3.47;;;;;;;3.04;36.45;99851.72;5114986;28;20113;-60
2023/10/26 08:03:35;;;;;;;6.20;3.22;;;;;;;2.78;37.51;99875.88;5114944;28;20028;-61
2023/10/26 08:06:02;;;;;;;6.60;3.88;;;;;;;2.35;38.02;99844.34;5113486;28;20034;-60
2023/10/26 08:08:29;;;;;;;5.82;3.15;;;;;;;2.23;38.10;99866.91;5114718;28;20053;-60
2023/10/26 08:11:12;;;;;;;7.45;3.38;;;;;;;2.28;38.80;99875.47;5114133;28;20068;-61
2023/10/26 08:13:38;;;;;;;7.13;3.58;;;;;;;2.20;38.80;99877.63;5114276;28;20027;-62
2023/10/26 08:16:04;;;;;;;8.13;3.60;;;;;;;2.09;38.62;99886.03;5112889;28;20038;-60
2023/10/26 08:18:30;;;;;;;6.80;3.42;;;;;;;1.81;38.99;99846.78;5114313;28;20108;-58
2023/10/26 08:20:56;;;;;;;10.10;3.78;;;;;;;1.69;39.45;99838.47;5114277;28;20415;-63
2023/10/26 08:23:22;;;;;;;7.93;3.80;;;;;;;1.83;39.45;99869.56;5114340;27;20038;-59
2023/10/26 08:25:48;;;;;;;7.20;3.47;;;;;;;1.94;39.40;99868.25;5095959;28;20092;-60
2023/10/26 08:28:15;;;;;;;9.27;3.63;;;;;;;1.89;39.82;99862.28;5113139;28;20119;-59
2023/10/26 08:30:41;;;;;;;7.68;4.13;;;;;;;1.99;39.59;99856.53;5114698;28;20027;-61
2023/10/26 08:33:07;;;;;;;7.10;4.25;;;;;;;2.08;39.15;99863.19;5114267;28;20093;-60
2023/10/26 08:35:32;;;;;;;11.95;4.53;;;;;;;1.98;39.70;99867.19;5114056;28;20032;-62
2023/10/26 08:37:58;;;;;;;13.65;4.05;;;;;;;1.79;40.35;99848.63;5114140;28;20089;-59
2023/10/26 08:40:24;;;;;;;8.82;3.17;;;;;;;2.00;40.10;99882.00;5114653;28;20020;-61
2023/10/26 08:42:50;;;;;;;5.78;3.45;;;;;;;1.76;40.33;99868.13;5113524;28;20088;-63
2023/10/26 08:45:27;;;;;;;8.27;3.75;;;;;;;1.93;40.06;99874.41;5113926;28;20606;-60
2023/10/26 08:47:55;;;;;;;6.70;3.08;;;;;;;1.55;40.70;99857.56;5114097;28;20462;-60
2023/10/26 08:50:22;;;;;;;5.45;3.42;;;;;;;1.11;41.22;99836.53;5114447;28;20069;-63
2023/10/26 08:52:48;;;;;;;6.38;3.60;;;;;;;1.34;40.91;99846.16;5114150;28;20096;-62
2023/10/26 08:55:14;;;;;;;6.80;3.88;;;;;;;1.61;40.73;99858.22;5113755;28;20434;-60
2023/10/26 08:57:51;;;;;;;6.82;3.65;;;;;;;1.51;41.04;99860.38;5113713;28;20042;-59
2023/10/26 09:00:17;;;;;;;9.48;4.28;;;;;;;1.54;40.97;99839.13;5113711;28;20382;-60
2023/10/26 09:02:42;;;;;;;8.50;2.65;;;;;;;1.72;40.61;99850.69;5113820;28;20039;-63
2023/10/26 09:05:10;;;;;;;8.18;2.90;;;;;;;2.05;40.16;99852.75;5112520;28;20051;-61
2023/10/26 09:07:35;;;;;;;9.32;3.88;;;;;;;2.07;40.06;99848.28;5112686;28;20442;-61
2023/10/26 09:10:01;;;;;;;10.70;3.28;;;;;;;2.08;40.42;99842.06;5113631;28;20149;-62
2023/10/26 09:12:29;;;;;;;7.85;3.95;;;;;;;1.79;40.06;99775.59;5113498;28;20023;-60
2023/10/26 09:15:08;;;;;;;10.40;3.90;;;;;;;2.21;40.50;99857.38;5113066;28;20450;-62
2023/10/26 09:17:34;;;;;;;7.50;3.45;;;;;;;2.13;40.56;99833.94;5112425;28;20028;-61
2023/10/26 09:20:16;;;;;;;10.02;3.67;;;;;;;2.36;40.54;99843.44;5113360;28;20043;-61
2023/10/26 09:22:41;;;;;;;8.02;3.30;;;;;;;2.24;40.02;99830.81;5113712;28;20050;-61
2023/10/26 09:25:12;;;;;;;7.88;3.78;;;;;;;2.26;40.34;99818.38;5112347;28;20469;-62
2023/10/26 09:27:39;;;;;;;9.63;3.70;;;;;;;2.26;40.06;99829.78;5113292;28;20122;-60
2023/10/26 09:30:06;;;;;;;7.18;3.72;;;;;;;2.18;40.43;99812.59;5112523;28;20046;-61
2023/10/26 09:32:36;;;;;;;9.07;3.78;;;;;;;2.44;40.23;99820.16;5113253;27;20043;-60
2023/10/26 09:35:03;;;;;;;7.30;3.65;;;;;;;2.13;39.56;99770.53;5112773;28;20031;-62
2023/10/26 09:37:30;;;;;;;5.75;3.08;;;;;;;2.36;39.02;99803.78;5113323;28;20039;-62
2023/10/26 09:39:57;;;;;;;5.03;3.40;;;;;;;2.25;39.04;99819.31;5113862;28;20032;-60
2023/10/26 09:42:24;;;;;;;5.13;2.95;;;;;;;2.10;39.70;99826.16;5111887;28;20108;-62
2023/10/26 09:44:50;;;;;;;5.07;3.13;;;;;;;1.84;39.86;99815.81;5112984;28;20224;-57
2023/10/26 09:47:16;;;;;;;7.03;3.45;;;;;;;1.70;40.13;99797.13;5113208;28;20023;-62
2023/10/26 09:49:42;;;;;;;4.18;2.75;;;;;;;1.32;40.96;99778.53;5113268;28;20035;-61
2023/10/26 09:52:08;;;;;;;5.20;3.20;;;;;;;1.49;41.21;99815.59;5112573;28;20032;-61
2023/10/26 09:54:37;;;;;;;10.15;3.42;;;;;;;1.56;41.27;99795.94;5113158;28;20035;-58
2023/10/26 09:57:03;;;;;;;7.57;3.30;;;;;;;1.57;41.14;99816.13;5112123;28;20460;-59
2023/10/26 09:59:30;;;;;;;11.35;3.90;;;;;;;1.31;41.77;99759.19;5113217;28;20117;-58
2023/10/26 10:01:56;;;;;;;6.63;3.97;;;;;;;1.61;41.38;99805.44;5112778;28;20144;-60
2023/10/26 10:04:37;;;;;;;10.27;3.75;;;;;;;1.67;41.69;99790.19;5112892;28;20474;-59
2023/10/26 10:07:03;;;;;;;5.90;3.08;;;;;;;1.72;41.11;99782.06;5112942;28;20028;-60
2023/10/26 10:09:30;;;;;;;6.80;3.17;;;;;;;1.90;41.08;99784.78;5112928;28;20081;-61
2023/10/26 10:12:05;;;;;;;7.38;3.60;;;;;;;1.99;41.45;99776.47;5112710;28;20055;-60
2023/10/26 10:14:54;;;;;;;7.22;2.80;;;;;;;2.30;40.36;99788.25;5113170;28;20032;-58
2023/10/26 10:17:22;;;;;;;7.00;3.20;;;;;;;2.29;39.92;99773.31;5113245;28;20047;-55
2023/10/26 10:20:19;;;;;;;8.15;3.15;;;;;;;2.37;40.06;99772.97;5112947;28;20024;-57
2023/10/26 10:22:47;;;;;;;6.90;3.03;;;;;;;2.31;40.16;99773.25;5112584;28;20106;-60
2023/10/26 10:25:13;;;;;;;8.18;3.30;;;;;;;2.48;39.30;99806.81;5112114;28;20090;-59
2023/10/26 10:27:48;;;;;;;7.82;3.17;;;;;;;2.30;40.09;99767.09;5112242;28;20090;-57
2023/10/26 10:30:18;;;;;;;5.22;2.85;;;;;;;2.25;39.40;99783.16;5112344;28;20031;-60
2023/10/26 10:32:44;;;;;;;6.13;2.85;;;;;;;2.24;40.03;99785.91;5112757;28;20080;-57
2023/10/26 10:35:28;;;;;;;6.10;3.10;;;;;;;2.09;40.63;99767.19;5112874;28;20043;-61
2023/10/26 10:38:16;;;;;;;7.93;2.97;;;;;;;2.32;40.36;99764.41;5115884;28;20042;-61
2023/10/26 10:40:54;;;;;;;6.82;3.38;;;;;;;2.29;40.31;99758.34;5116161;28;20038;-59
2023/10/26 10:43:30;;;;;;;6.88;3.08;;;;;;;2.41;39.77;99762.19;5116277;28;20034;-60
2023/10/26 10:45:55;;;;;;;;;;;;;;;2.65;39.36;99772.50;5117221;28;20035;-61
2023/10/26 10:48:20;;;;;;;8.27;4.10;;;;;;;2.15;39.65;99737.81;5116440;28;19919;-61
2023/10/26 10:50:50;;;;;;;4.40;2.67;;;;;;;2.37;40.00;99773.81;5115360;28;20028;-60
2023/10/26 10:53:16;;;;;;;4.50;3.10;;;;;;;2.24;40.00;99751.56;5115308;28;20030;-61
2023/10/26 10:55:43;;;;;;;2.97;2.17;;;;;;;2.34;39.89;99773.13;5115786;28;20365;-61
2023/10/26 10:58:09;;;;;;;6.60;3.42;;;;;;;2.23;40.16;99763.03;5116234;28;20027;-60
2023/10/26 11:00:45;;;;;;;6.75;3.00;;;;;;;2.36;39.87;99766.81;5116147;28;20408;-62
2023/10/26 11:03:18;;;;;;;9.00;2.70;;;;;;;2.27;40.51;99764.63;5116150;28;20450;-60
2023/10/26 11:05:44;;;;;;;7.65;3.28;;;;;;;1.94;40.47;99738.84;5115694;28;20055;-61
2023/10/26 11:08:10;;;;;;;8.50;3.67;;;;;;;1.75;41.31;99752.03;5115083;28;20137;-61
2023/10/26 11:10:36;;;;;;;7.07;3.55;;;;;;;1.86;41.51;99753.25;5116221;28;20081;-60
2023/10/26 11:13:02;;;;;;;14.05;3.53;;;;;;;1.76;41.23;99724.69;5116242;28;20527;-63
2023/10/26 11:15:33;;;;;;;6.53;3.47;;;;;;;1.95;41.27;99738.78;5115830;27;20062;-61
2023/10/26 11:18:00;;;;;;;7.15;3.50;;;;;;;1.90;40.94;99735.50;5115098;28;20116;-61
2023/10/26 11:20:43;;;;;;;8.57;3.05;;;;;;;1.97;41.32;99728.16;5115113;28;20039;-60
2023/10/26 11:23:11;;;;;;;6.57;3.28;;;;;;;1.92;40.79;99730.13;5114595;28;20544;-58
2023/10/26 11:25:37;;;;;;;5.07;2.83;;;;;;;1.98;40.72;99737.78;5116022;28;20048;-58
2023/10/26 11:28:03;;;;;;;7.28;3.45;;;;;;;1.92;40.74;99746.84;5115604;28;20032;-62
2023/10/26 11:30:45;;;;;;;6.82;3.70;;;;;;;1.72;41.65;99724.84;5115079;28;20446;-60
2023/10/26 11:33:28;;;;;;;7.63;3.17;;;;;;;1.88;41.52;99745.28;5114353;28;20166;-63
2023/10/26 11:35:55;;;;;;;6.18;3.38;;;;;;;1.65;41.19;99704.94;5115321;28;20118;-58